createdAt,value
2024-01-09T00:00:19.663Z,1042.00
2024-01-09T00:01:19.724Z,1038.00
2024-01-09T00:02:19.616Z,1039.00
2024-01-09T00:03:19.644Z,1039.00
2024-01-09T00:04:19.591Z,1039.00
2024-01-09T00:05:19.611Z,1038.00
2024-01-09T00:06:19.657Z,1043.00
2024-01-09T00:07:19.589Z,1041.00
2024-01-09T00:08:19.604Z,1039.00
2024-01-09T00:09:19.568Z,1038.00
2024-01-09T00:10:19.537Z,1036.00
2024-01-09T00:11:19.586Z,1034.00
2024-01-09T00:12:19.516Z,1035.00
2024-01-09T00:13:19.520Z,1033.00
2024-01-09T00:14:19.521Z,1032.00
2024-01-09T00:15:19.540Z,1028.00
2024-01-09T00:16:19.487Z,1027.00
2024-01-09T00:17:19.523Z,1026.00
2024-01-09T00:18:19.609Z,1026.00
2024-01-09T00:19:19.497Z,1029.00
2024-01-09T00:20:19.477Z,1028.00
2024-01-09T00:21:19.439Z,1026.00
2024-01-09T00:22:19.446Z,1023.00
2024-01-09T00:23:19.445Z,1022.00
2024-01-09T00:24:19.420Z,1023.00
2024-01-09T00:25:19.430Z,1024.00
2024-01-09T00:26:19.448Z,1023.00
2024-01-09T00:27:19.434Z,1024.00
2024-01-09T00:28:19.417Z,1026.00
2024-01-09T00:29:19.378Z,1022.00
2024-01-09T00:30:19.390Z,1022.00
2024-01-09T00:31:19.348Z,1019.00
2024-01-09T00:32:19.365Z,1020.00
2024-01-09T00:33:19.516Z,1017.00
2024-01-09T00:34:19.512Z,1012.00
2024-01-09T00:35:19.332Z,1013.00
2024-01-09T00:36:19.316Z,1011.00
2024-01-09T00:37:19.304Z,1011.00
2024-01-09T00:38:19.339Z,1007.00
2024-01-09T00:39:19.284Z,1008.00
2024-01-09T00:40:19.292Z,1006.00
2024-01-09T00:41:19.291Z,1003.00
2024-01-09T00:42:19.252Z,1005.00
2024-01-09T00:43:19.249Z,1003.00
2024-01-09T00:44:19.283Z,1003.00
2024-01-09T00:45:19.223Z,1001.00
2024-01-09T00:46:19.321Z,1000.00
2024-01-09T00:47:19.270Z,997.00
2024-01-09T00:48:19.386Z,996.00
2024-01-09T00:49:19.243Z,996.00
2024-01-09T00:50:19.204Z,993.00
2024-01-09T00:51:19.162Z,993.00
2024-01-09T00:52:19.160Z,992.00
2024-01-09T00:53:19.369Z,989.00
2024-01-09T00:54:19.149Z,988.00
2024-01-09T00:55:19.148Z,987.00
2024-01-09T00:56:19.150Z,988.00
2024-01-09T00:57:20.064Z,985.00
2024-01-09T00:58:19.104Z,983.00
2024-01-09T00:59:19.131Z,982.00
2024-01-09T01:00:19.116Z,981.00
2024-01-09T01:01:19.104Z,980.00
2024-01-09T01:02:19.091Z,982.00
2024-01-09T01:03:19.140Z,980.00
2024-01-09T01:04:19.049Z,981.00
2024-01-09T01:05:19.282Z,979.00
2024-01-09T01:06:19.053Z,976.00
2024-01-09T01:07:19.009Z,975.00
2024-01-09T01:08:19.058Z,974.00
2024-01-09T01:09:18.989Z,974.00
2024-01-09T01:10:21.094Z,972.00
2024-01-09T01:11:19.009Z,973.00
2024-01-09T01:12:18.991Z,971.00
2024-01-09T01:13:18.956Z,971.00
2024-01-09T01:14:19.011Z,969.00
2024-01-09T01:15:18.981Z,969.00
2024-01-09T01:16:18.939Z,969.00
2024-01-09T01:17:18.967Z,969.00
2024-01-09T01:18:19.112Z,966.00
2024-01-09T01:19:18.947Z,963.00
2024-01-09T01:20:19.002Z,960.00
2024-01-09T01:21:18.891Z,960.00
2024-01-09T01:22:18.883Z,957.00
2024-01-09T01:23:18.949Z,958.00
2024-01-09T01:24:18.862Z,955.00
2024-01-09T01:25:18.871Z,956.00
2024-01-09T01:26:18.873Z,954.00
2024-01-09T01:27:18.830Z,953.00
2024-01-09T01:28:18.828Z,948.00
2024-01-09T01:29:18.868Z,945.00
2024-01-09T01:30:18.830Z,941.00
2024-01-09T01:31:18.803Z,943.00
2024-01-09T01:32:18.912Z,946.00
2024-01-09T01:33:18.919Z,947.00
2024-01-09T01:34:18.839Z,946.00
2024-01-09T01:35:18.782Z,945.00
2024-01-09T01:36:18.758Z,943.00
2024-01-09T01:37:18.743Z,940.00
2024-01-09T01:38:18.762Z,939.00
2024-01-09T01:39:18.743Z,936.00
2024-01-09T01:40:18.721Z,936.00
2024-01-09T01:41:18.807Z,935.00
2024-01-09T01:42:18.713Z,940.00
2024-01-09T01:43:18.684Z,940.00
2024-01-09T01:44:18.805Z,947.00
2024-01-09T01:45:18.663Z,945.00
2024-01-09T01:46:18.665Z,942.00
2024-01-09T01:47:18.704Z,939.00
2024-01-09T01:48:18.799Z,937.00
2024-01-09T01:49:18.804Z,936.00
2024-01-09T01:50:18.674Z,934.00
2024-01-09T01:51:18.609Z,933.00
2024-01-09T01:52:18.628Z,932.00
2024-01-09T01:53:18.619Z,930.00
2024-01-09T01:54:18.584Z,928.00
2024-01-09T01:55:18.603Z,928.00
2024-01-09T01:56:18.639Z,926.00
2024-01-09T01:57:18.577Z,927.00
2024-01-09T01:58:18.557Z,927.00
2024-01-09T01:59:18.560Z,926.00
2024-01-09T02:00:18.541Z,923.00
2024-01-09T02:01:18.546Z,923.00
2024-01-09T02:02:18.570Z,919.00
2024-01-09T02:03:18.568Z,917.00
2024-01-09T02:04:18.525Z,915.00
2024-01-09T02:05:18.554Z,916.00
2024-01-09T02:06:18.538Z,913.00
2024-01-09T02:07:18.466Z,910.00
2024-01-09T02:08:18.504Z,908.00
2024-01-09T02:09:18.493Z,913.00
2024-01-09T02:10:18.442Z,912.00
2024-01-09T02:11:18.449Z,911.00
2024-01-09T02:12:18.416Z,911.00
2024-01-09T02:13:18.406Z,910.00
2024-01-09T02:14:18.433Z,909.00
2024-01-09T02:15:18.387Z,905.00
2024-01-09T02:16:18.388Z,903.00
2024-01-09T02:17:18.429Z,901.00
2024-01-09T02:18:18.629Z,898.00
2024-01-09T02:19:18.418Z,899.00
2024-01-09T02:20:18.369Z,898.00
2024-01-09T02:21:23.365Z,899.00
2024-01-09T02:22:18.331Z,897.00
2024-01-09T02:23:18.359Z,897.00
2024-01-09T02:24:18.315Z,896.00
2024-01-09T02:25:18.294Z,891.00
2024-01-09T02:26:33.550Z,891.00
2024-01-09T02:27:19.370Z,890.00
2024-01-09T02:28:18.326Z,890.00
2024-01-09T02:29:18.313Z,889.00
2024-01-09T02:30:18.333Z,888.00
2024-01-09T02:31:18.243Z,886.00
2024-01-09T02:32:18.331Z,885.00
2024-01-09T02:33:18.363Z,884.00
2024-01-09T02:34:18.334Z,887.00
2024-01-09T02:35:18.239Z,889.00
2024-01-09T02:36:18.205Z,886.00
2024-01-09T02:37:18.184Z,891.00
2024-01-09T02:38:18.210Z,889.00
2024-01-09T02:39:18.163Z,893.00
2024-01-09T02:40:18.179Z,892.00
2024-01-09T02:41:18.167Z,894.00
2024-01-09T02:42:18.154Z,888.00
2024-01-09T02:43:18.136Z,887.00
2024-01-09T02:44:18.139Z,888.00
2024-01-09T02:45:18.124Z,888.00
2024-01-09T02:46:18.101Z,888.00
2024-01-09T02:47:18.128Z,887.00
2024-01-09T02:48:18.233Z,889.00
2024-01-09T02:49:18.187Z,888.00
2024-01-09T02:50:18.101Z,886.00
2024-01-09T02:51:18.060Z,884.00
2024-01-09T02:52:18.057Z,882.00
2024-01-09T02:53:18.045Z,879.00
2024-01-09T02:54:18.064Z,879.00
2024-01-09T02:55:28.068Z,880.00
2024-01-09T02:56:18.063Z,878.00
2024-01-09T02:57:17.998Z,875.00
2024-01-09T02:58:18.006Z,870.00
2024-01-09T02:59:18.000Z,871.00
2024-01-09T03:00:17.986Z,873.00
2024-01-09T03:01:18.005Z,876.00
2024-01-09T03:02:17.995Z,875.00
2024-01-09T03:03:18.023Z,873.00
2024-01-09T03:04:17.966Z,871.00
2024-01-09T03:05:18.072Z,869.00
2024-01-09T03:06:18.022Z,869.00
2024-01-09T03:07:18.065Z,868.00
2024-01-09T03:08:17.949Z,870.00
2024-01-09T03:09:17.900Z,870.00
2024-01-09T03:10:17.895Z,865.00
2024-01-09T03:11:17.935Z,867.00
2024-01-09T03:12:17.879Z,869.00
2024-01-09T03:13:17.863Z,869.00
2024-01-09T03:14:17.880Z,866.00
2024-01-09T03:15:17.848Z,865.00
2024-01-09T03:16:17.838Z,862.00
2024-01-09T03:17:17.866Z,861.00
2024-01-09T03:18:18.031Z,858.00
2024-01-09T03:19:18.028Z,858.00
2024-01-09T03:20:17.853Z,857.00
2024-01-09T03:21:17.788Z,856.00
2024-01-09T03:22:17.775Z,854.00
2024-01-09T03:23:17.792Z,854.00
2024-01-09T03:24:17.777Z,851.00
2024-01-09T03:25:17.757Z,847.00
2024-01-09T03:26:17.775Z,848.00
2024-01-09T03:27:17.739Z,846.00
2024-01-09T03:28:17.724Z,847.00
2024-01-09T03:29:17.725Z,843.00
2024-01-09T03:30:17.775Z,842.00
2024-01-09T03:31:17.688Z,839.00
2024-01-09T03:32:17.715Z,838.00
2024-01-09T03:33:17.766Z,839.00
2024-01-09T03:34:17.713Z,837.00
2024-01-09T03:35:17.678Z,838.00
2024-01-09T03:36:17.650Z,837.00
2024-01-09T03:37:17.644Z,838.00
2024-01-09T03:38:17.780Z,837.00
2024-01-09T03:39:17.624Z,839.00
2024-01-09T03:40:17.613Z,840.00
2024-01-09T03:41:17.638Z,839.00
2024-01-09T03:42:17.600Z,836.00
2024-01-09T03:43:17.581Z,837.00
2024-01-09T03:44:17.585Z,835.00
2024-01-09T03:45:17.580Z,831.00
2024-01-09T03:46:17.583Z,829.00
2024-01-09T03:47:17.654Z,829.00
2024-01-09T03:48:17.588Z,828.00
2024-01-09T03:49:17.550Z,827.00
2024-01-09T03:50:17.607Z,828.00
2024-01-09T03:51:17.517Z,825.00
2024-01-09T03:52:17.519Z,825.00
2024-01-09T03:53:17.501Z,823.00
2024-01-09T03:54:17.510Z,821.00
2024-01-09T03:55:17.474Z,823.00
2024-01-09T03:56:17.509Z,821.00
2024-01-09T03:57:18.568Z,820.00
2024-01-09T03:58:17.444Z,820.00
2024-01-09T03:59:17.449Z,819.00
2024-01-09T04:00:17.444Z,818.00
2024-01-09T04:01:17.453Z,818.00
2024-01-09T04:02:17.460Z,819.00
2024-01-09T04:03:17.432Z,816.00
2024-01-09T04:04:17.392Z,816.00
2024-01-09T04:05:17.468Z,815.00
2024-01-09T04:06:17.470Z,815.00
2024-01-09T04:07:17.386Z,812.00
2024-01-09T04:08:17.373Z,808.00
2024-01-09T04:09:17.344Z,810.00
2024-01-09T04:10:17.348Z,810.00
2024-01-09T04:11:17.370Z,813.00
2024-01-09T04:12:17.336Z,813.00
2024-01-09T04:13:17.309Z,815.00
2024-01-09T04:14:17.329Z,814.00
2024-01-09T04:15:17.310Z,813.00
2024-01-09T04:16:17.299Z,815.00
2024-01-09T04:17:17.289Z,815.00
2024-01-09T04:18:17.372Z,814.00
2024-01-09T04:19:17.355Z,809.00
2024-01-09T04:20:17.346Z,808.00
2024-01-09T04:21:17.262Z,807.00
2024-01-09T04:22:17.226Z,807.00
2024-01-09T04:23:17.241Z,807.00
2024-01-09T04:24:17.221Z,806.00
2024-01-09T04:25:17.187Z,805.00
2024-01-09T04:26:17.213Z,805.00
2024-01-09T04:27:17.189Z,806.00
2024-01-09T04:28:22.200Z,803.00
2024-01-09T04:29:17.189Z,800.00
2024-01-09T04:30:17.171Z,798.00
2024-01-09T04:31:17.141Z,798.00
2024-01-09T04:32:17.155Z,795.00
2024-01-09T04:33:17.175Z,797.00
2024-01-09T04:34:17.232Z,795.00
2024-01-09T04:35:17.150Z,792.00
2024-01-09T04:36:17.111Z,789.00
2024-01-09T04:37:17.100Z,788.00
2024-01-09T04:38:17.092Z,787.00
2024-01-09T04:39:17.067Z,788.00
2024-01-09T04:40:17.048Z,786.00
2024-01-09T04:41:17.111Z,789.00
2024-01-09T04:42:17.039Z,787.00
2024-01-09T04:43:17.033Z,788.00
2024-01-09T04:44:17.072Z,788.00
2024-01-09T04:45:17.040Z,787.00
2024-01-09T04:46:17.150Z,786.00
2024-01-09T04:47:17.068Z,783.00
2024-01-09T04:48:17.095Z,783.00
2024-01-09T04:49:17.096Z,782.00
2024-01-09T04:50:17.035Z,781.00
2024-01-09T04:51:16.962Z,780.00
2024-01-09T04:52:16.949Z,779.00
2024-01-09T04:53:16.966Z,777.00
2024-01-09T04:54:16.938Z,775.00
2024-01-09T04:55:16.928Z,777.00
2024-01-09T04:56:16.927Z,776.00
2024-01-09T04:57:16.914Z,772.00
2024-01-09T04:58:16.879Z,774.00
2024-01-09T04:59:16.921Z,773.00
2024-01-09T05:00:16.863Z,774.00
2024-01-09T05:01:16.966Z,771.00
2024-01-09T05:02:16.878Z,770.00
2024-01-09T05:03:16.989Z,771.00
2024-01-09T05:04:16.826Z,772.00
2024-01-09T05:05:16.882Z,773.00
2024-01-09T05:06:16.873Z,771.00
2024-01-09T05:07:16.808Z,771.00
2024-01-09T05:08:16.830Z,771.00
2024-01-09T05:09:16.792Z,770.00
2024-01-09T05:10:16.774Z,769.00
2024-01-09T05:11:19.395Z,769.00
2024-01-09T05:12:16.756Z,769.00
2024-01-09T05:13:16.750Z,767.00
2024-01-09T05:14:16.785Z,767.00
2024-01-09T05:15:16.732Z,767.00
2024-01-09T05:16:16.755Z,766.00
2024-01-09T05:17:16.739Z,763.00
2024-01-09T05:18:16.827Z,761.00
2024-01-09T05:19:16.834Z,762.00
2024-01-09T05:20:16.707Z,763.00
2024-01-09T05:21:16.691Z,763.00
2024-01-09T05:22:16.674Z,763.00
2024-01-09T05:23:16.713Z,765.00
2024-01-09T05:24:16.652Z,767.00
2024-01-09T05:25:21.668Z,766.00
2024-01-09T05:26:18.116Z,767.00
2024-01-09T05:27:16.629Z,767.00
2024-01-09T05:28:16.618Z,767.00
2024-01-09T05:29:16.663Z,763.00
2024-01-09T05:30:16.689Z,758.00
2024-01-09T05:31:17.431Z,756.00
2024-01-09T05:32:16.679Z,759.00
2024-01-09T05:33:16.668Z,758.00
2024-01-09T05:34:16.601Z,758.00
2024-01-09T05:35:16.588Z,759.00
2024-01-09T05:36:16.535Z,757.00
2024-01-09T05:37:16.539Z,757.00
2024-01-09T05:38:18.996Z,755.00
2024-01-09T05:39:16.512Z,752.00
2024-01-09T05:40:16.502Z,750.00
2024-01-09T05:41:16.504Z,751.00
2024-01-09T05:42:16.490Z,749.00
2024-01-09T05:43:16.566Z,748.00
2024-01-09T05:44:16.493Z,746.00
2024-01-09T05:45:21.486Z,746.00
2024-01-09T05:46:16.449Z,746.00
2024-01-09T05:47:16.523Z,745.00
2024-01-09T05:48:16.573Z,744.00
2024-01-09T05:49:16.470Z,743.00
2024-01-09T05:50:16.462Z,741.00
2024-01-09T05:51:16.416Z,740.00
2024-01-09T05:52:16.394Z,740.00
2024-01-09T05:53:16.410Z,738.00
2024-01-09T05:54:16.373Z,736.00
2024-01-09T05:55:16.390Z,738.00
2024-01-09T05:56:16.386Z,740.00
2024-01-09T05:57:16.398Z,741.00
2024-01-09T05:58:16.341Z,739.00
2024-01-09T05:59:16.379Z,739.00
2024-01-09T06:00:16.342Z,739.00
2024-01-09T06:01:16.338Z,739.00
2024-01-09T06:02:16.330Z,739.00
2024-01-09T06:03:16.344Z,741.00
2024-01-09T06:04:16.277Z,740.00
2024-01-09T06:05:16.317Z,740.00
2024-01-09T06:06:16.315Z,736.00
2024-01-09T06:07:16.264Z,736.00
2024-01-09T06:08:16.275Z,735.00
2024-01-09T06:09:16.259Z,735.00
2024-01-09T06:10:16.245Z,734.00
2024-01-09T06:11:16.269Z,734.00
2024-01-09T06:12:17.612Z,734.00
2024-01-09T06:13:16.202Z,737.00
2024-01-09T06:14:16.241Z,738.00
2024-01-09T06:15:16.206Z,737.00
2024-01-09T06:16:16.172Z,732.00
2024-01-09T06:17:16.225Z,733.00
2024-01-09T06:18:16.298Z,733.00
2024-01-09T06:19:16.338Z,730.00
2024-01-09T06:20:16.140Z,730.00
2024-01-09T06:21:17.604Z,729.00
2024-01-09T06:22:16.115Z,730.00
2024-01-09T06:23:16.149Z,728.00
2024-01-09T06:24:16.101Z,726.00
2024-01-09T06:25:16.097Z,731.00
2024-01-09T06:26:16.136Z,731.00
2024-01-09T06:27:16.073Z,731.00
2024-01-09T06:28:16.060Z,731.00
2024-01-09T06:29:16.117Z,728.00
2024-01-09T06:30:16.057Z,727.00
2024-01-09T06:31:16.042Z,727.00
2024-01-09T06:32:16.063Z,727.00
2024-01-09T06:33:16.188Z,726.00
2024-01-09T06:34:16.110Z,726.00
2024-01-09T06:35:16.047Z,725.00
2024-01-09T06:36:15.995Z,725.00
2024-01-09T06:37:15.996Z,727.00
2024-01-09T06:38:16.005Z,729.00
2024-01-09T06:39:15.974Z,731.00
2024-01-09T06:40:15.959Z,730.00
2024-01-09T06:41:16.036Z,732.00
2024-01-09T06:42:15.947Z,730.00
2024-01-09T06:43:15.942Z,728.00
2024-01-09T06:44:15.934Z,726.00
2024-01-09T06:45:15.974Z,726.00
2024-01-09T06:46:15.895Z,723.00
2024-01-09T06:47:15.921Z,720.00
2024-01-09T06:48:15.969Z,719.00
2024-01-09T06:49:15.946Z,718.00
2024-01-09T06:50:26.179Z,720.00
2024-01-09T06:51:16.936Z,719.00
2024-01-09T06:52:15.842Z,719.00
2024-01-09T06:53:15.877Z,721.00
2024-01-09T06:54:15.817Z,719.00
2024-01-09T06:55:15.818Z,719.00
2024-01-09T06:56:20.831Z,718.00
2024-01-09T06:57:15.796Z,718.00
2024-01-09T06:58:15.793Z,715.00
2024-01-09T06:59:15.843Z,715.00
2024-01-09T07:00:15.780Z,713.00
2024-01-09T07:01:17.476Z,716.00
2024-01-09T07:02:15.857Z,717.00
2024-01-09T07:03:15.853Z,719.00
2024-01-09T07:04:16.024Z,719.00
2024-01-09T07:05:15.931Z,717.00
2024-01-09T07:06:15.840Z,718.00
2024-01-09T07:07:15.792Z,717.00
2024-01-09T07:08:15.805Z,720.00
2024-01-09T07:09:15.778Z,722.00
2024-01-09T07:10:15.753Z,722.00
2024-01-09T07:11:15.780Z,723.00
2024-01-09T07:12:15.738Z,721.00
2024-01-09T07:13:15.744Z,722.00
2024-01-09T07:14:15.859Z,720.00
2024-01-09T07:15:16.448Z,721.00
2024-01-09T07:16:15.931Z,722.00
2024-01-09T07:17:15.733Z,725.00
2024-01-09T07:18:15.824Z,723.00
2024-01-09T07:19:15.743Z,724.00
2024-01-09T07:20:16.655Z,732.00
2024-01-09T07:21:15.671Z,734.00
2024-01-09T07:22:15.646Z,736.00
2024-01-09T07:23:19.900Z,739.00
2024-01-09T07:24:16.659Z,735.00
2024-01-09T07:25:15.846Z,735.00
2024-01-09T07:26:15.773Z,734.00
2024-01-09T07:27:15.614Z,737.00
2024-01-09T07:28:15.640Z,738.00
2024-01-09T07:29:15.617Z,737.00
2024-01-09T07:30:15.632Z,739.00
2024-01-09T07:31:15.623Z,737.00
2024-01-09T07:32:15.580Z,738.00
2024-01-09T07:33:15.731Z,733.00
2024-01-09T07:34:15.584Z,733.00
2024-01-09T07:35:15.545Z,735.00
2024-01-09T07:36:15.514Z,735.00
2024-01-09T07:37:15.513Z,736.00
2024-01-09T07:38:15.546Z,736.00
2024-01-09T07:39:15.490Z,736.00
2024-01-09T07:40:15.509Z,733.00
2024-01-09T07:41:15.486Z,733.00
2024-01-09T07:42:15.463Z,734.00
2024-01-09T07:43:15.491Z,736.00
2024-01-09T07:44:15.489Z,737.00
2024-01-09T07:45:15.437Z,741.00
2024-01-09T07:46:15.442Z,746.00
2024-01-09T07:47:15.451Z,753.00
2024-01-09T07:48:15.487Z,756.00
2024-01-09T07:49:15.434Z,758.00
2024-01-09T07:50:15.407Z,760.00
2024-01-09T07:51:15.403Z,764.00
2024-01-09T07:52:15.375Z,765.00
2024-01-09T07:53:15.415Z,768.00
2024-01-09T07:54:15.346Z,775.00
2024-01-09T07:55:15.377Z,784.00
2024-01-09T07:56:15.373Z,790.00
2024-01-09T07:57:21.886Z,793.00
2024-01-09T07:58:16.321Z,797.00
2024-01-09T07:59:15.339Z,802.00
2024-01-09T08:00:15.311Z,807.00
2024-01-09T08:01:15.360Z,810.00
2024-01-09T08:02:15.292Z,814.00
2024-01-09T08:03:18.533Z,822.00
2024-01-09T08:04:16.297Z,826.00
2024-01-09T08:05:15.296Z,830.00
2024-01-09T08:06:15.334Z,835.00
2024-01-09T08:07:15.239Z,844.00
2024-01-09T08:08:15.262Z,844.00
2024-01-09T08:09:15.220Z,848.00
2024-01-09T08:10:15.216Z,849.00
2024-01-09T08:11:15.246Z,853.00
2024-01-09T08:12:15.194Z,859.00
2024-01-09T08:13:15.177Z,857.00
2024-01-09T08:14:15.244Z,859.00
2024-01-09T08:15:15.170Z,863.00
2024-01-09T08:16:15.154Z,866.00
2024-01-09T08:17:15.155Z,870.00
2024-01-09T08:18:15.277Z,869.00
2024-01-09T08:19:15.163Z,869.00
2024-01-09T08:20:15.146Z,871.00
2024-01-09T08:21:15.136Z,869.00
2024-01-09T08:22:15.094Z,871.00
2024-01-09T08:23:15.177Z,874.00
2024-01-09T08:24:15.076Z,874.00
2024-01-09T08:25:15.075Z,876.00
2024-01-09T08:26:15.106Z,878.00
2024-01-09T08:27:15.055Z,882.00
2024-01-09T08:28:15.034Z,884.00
2024-01-09T08:29:15.072Z,888.00
2024-01-09T08:30:15.071Z,888.00
2024-01-09T08:31:15.100Z,890.00
2024-01-09T08:32:15.018Z,893.00
2024-01-09T08:33:15.106Z,901.00
2024-01-09T08:34:15.162Z,903.00
2024-01-09T08:35:15.222Z,908.00
2024-01-09T08:36:14.975Z,914.00
2024-01-09T08:37:14.957Z,927.00
2024-01-09T08:38:14.951Z,934.00
2024-01-09T08:39:14.962Z,949.00
2024-01-09T08:40:14.928Z,964.00
2024-01-09T08:41:14.957Z,968.00
2024-01-09T08:42:14.912Z,963.00
2024-01-09T08:43:14.906Z,964.00
2024-01-09T08:44:14.937Z,969.00
2024-01-09T08:45:14.883Z,974.00
2024-01-09T08:46:14.873Z,986.00
2024-01-09T08:47:14.923Z,1032.00
2024-01-09T08:48:14.904Z,1040.00
2024-01-09T08:49:14.904Z,1054.00
2024-01-09T08:50:14.891Z,1120.00
2024-01-09T08:51:18.166Z,1125.00
2024-01-09T08:52:15.833Z,1119.00
2024-01-09T08:53:14.872Z,1121.00
2024-01-09T08:54:14.811Z,1127.00
2024-01-09T08:55:14.789Z,1130.00
2024-01-09T08:56:14.837Z,1132.00
2024-01-09T08:57:14.778Z,1135.00
2024-01-09T08:58:14.766Z,1132.00
2024-01-09T08:59:14.824Z,1137.00
2024-01-09T09:00:14.810Z,1138.00
2024-01-09T09:01:14.769Z,1141.00
2024-01-09T09:02:14.826Z,1144.00
2024-01-09T09:03:14.822Z,1142.00
2024-01-09T09:04:14.758Z,1138.00
2024-01-09T09:05:14.744Z,1141.00
2024-01-09T09:06:14.764Z,1139.00
2024-01-09T09:07:14.755Z,1133.00
2024-01-09T09:08:14.727Z,1131.00
2024-01-09T09:09:14.661Z,1121.00
2024-01-09T09:10:14.659Z,1114.00
2024-01-09T09:11:14.676Z,1107.00
2024-01-09T09:12:14.648Z,1103.00
2024-01-09T09:13:14.634Z,1094.00
2024-01-09T09:14:14.728Z,1082.00
2024-01-09T09:15:14.651Z,1076.00
2024-01-09T09:16:14.629Z,1070.00
2024-01-09T09:17:14.640Z,1059.00
2024-01-09T09:18:14.885Z,1057.00
2024-01-09T09:19:14.621Z,1049.00
2024-01-09T09:20:14.712Z,1043.00
2024-01-09T09:21:14.556Z,1035.00
2024-01-09T09:22:14.566Z,1028.00
2024-01-09T09:23:14.564Z,1020.00
2024-01-09T09:24:14.553Z,1019.00
2024-01-09T09:25:14.518Z,1011.00
2024-01-09T09:26:14.606Z,1004.00
2024-01-09T09:27:14.600Z,996.00
2024-01-09T09:28:14.497Z,988.00
2024-01-09T09:29:22.470Z,977.00
2024-01-09T09:30:15.562Z,975.00
2024-01-09T09:31:14.499Z,973.00
2024-01-09T09:32:14.529Z,972.00
2024-01-09T09:33:14.589Z,971.00
2024-01-09T09:34:14.550Z,971.00
2024-01-09T09:35:14.453Z,968.00
2024-01-09T09:36:14.427Z,964.00
2024-01-09T09:37:14.410Z,965.00
2024-01-09T09:38:14.457Z,974.00
2024-01-09T09:39:14.405Z,978.00
2024-01-09T09:40:16.599Z,981.00
2024-01-09T09:41:14.425Z,980.00
2024-01-09T09:42:14.396Z,981.00
2024-01-09T09:43:14.373Z,979.00
2024-01-09T09:44:14.441Z,982.00
2024-01-09T09:45:14.354Z,984.00
2024-01-09T09:46:14.368Z,985.00
2024-01-09T09:47:14.391Z,983.00
2024-01-09T09:48:14.532Z,982.00
2024-01-09T09:49:14.415Z,985.00
2024-01-09T09:50:14.358Z,985.00
2024-01-09T09:51:14.600Z,981.00
2024-01-09T09:52:14.308Z,978.00
2024-01-09T09:53:14.367Z,975.00
2024-01-09T09:54:14.281Z,971.00
2024-01-09T09:55:14.274Z,962.00
2024-01-09T09:56:14.332Z,953.00
2024-01-09T09:57:14.289Z,943.00
2024-01-09T09:58:14.257Z,940.00
2024-01-09T09:59:14.303Z,939.00
2024-01-09T10:00:14.249Z,934.00
2024-01-09T10:01:14.296Z,931.00
2024-01-09T10:02:14.278Z,928.00
2024-01-09T10:03:14.271Z,932.00
2024-01-09T10:04:14.245Z,925.00
2024-01-09T10:05:14.199Z,922.00
2024-01-09T10:06:14.293Z,921.00
2024-01-09T10:07:14.159Z,918.00
2024-01-09T10:08:14.249Z,909.00
2024-01-09T10:09:14.136Z,902.00
2024-01-09T10:10:14.150Z,902.00
2024-01-09T10:11:14.138Z,900.00
2024-01-09T10:12:14.122Z,896.00
2024-01-09T10:13:14.109Z,893.00
2024-01-09T10:14:14.148Z,890.00
2024-01-09T10:15:14.217Z,892.00
2024-01-09T10:16:14.111Z,893.00
2024-01-09T10:17:14.172Z,895.00
2024-01-09T10:18:14.119Z,895.00
2024-01-09T10:19:14.124Z,898.00
2024-01-09T10:20:14.198Z,897.00
2024-01-09T10:21:14.081Z,898.00
2024-01-09T10:22:14.039Z,899.00
2024-01-09T10:23:14.068Z,900.00
2024-01-09T10:24:14.015Z,902.00
2024-01-09T10:25:14.128Z,902.00
2024-01-09T10:26:14.082Z,902.00
2024-01-09T10:27:14.020Z,904.00
2024-01-09T10:28:14.046Z,908.00
2024-01-09T10:29:14.007Z,908.00
2024-01-09T10:30:14.366Z,909.00
2024-01-09T10:31:14.029Z,912.00
2024-01-09T10:32:14.551Z,910.00
2024-01-09T10:33:14.060Z,915.00
2024-01-09T10:34:14.066Z,917.00
2024-01-09T10:35:14.038Z,917.00
2024-01-09T10:36:13.893Z,917.00
2024-01-09T10:37:13.873Z,923.00
2024-01-09T10:38:13.929Z,928.00
2024-01-09T10:39:14.155Z,929.00
2024-01-09T10:40:13.859Z,932.00
2024-01-09T10:41:13.862Z,936.00
2024-01-09T10:42:13.841Z,946.00
2024-01-09T10:43:13.828Z,953.00
2024-01-09T10:44:13.862Z,960.00
2024-01-09T10:45:13.800Z,968.00
2024-01-09T10:46:13.796Z,972.00
2024-01-09T10:47:13.811Z,977.00
2024-01-09T10:48:13.882Z,976.00
2024-01-09T10:49:13.820Z,981.00
2024-01-09T10:50:13.879Z,989.00
2024-01-09T10:51:13.918Z,997.00
2024-01-09T10:52:13.754Z,1027.00
2024-01-09T10:53:13.877Z,1077.00
2024-01-09T10:54:13.732Z,1075.00
2024-01-09T10:55:13.732Z,1074.00
2024-01-09T10:56:13.784Z,1082.00
2024-01-09T10:57:13.704Z,1103.00
2024-01-09T10:58:13.700Z,1122.00
2024-01-09T10:59:13.758Z,1124.00
2024-01-09T11:00:13.665Z,1128.00
2024-01-09T11:01:13.717Z,1130.00
2024-01-09T11:02:13.729Z,1132.00
2024-01-09T11:03:13.737Z,1133.00
2024-01-09T11:04:13.689Z,1133.00
2024-01-09T11:05:13.656Z,1131.00
2024-01-09T11:06:13.709Z,1132.00
2024-01-09T11:07:13.607Z,1134.00
2024-01-09T11:08:13.708Z,1134.00
2024-01-09T11:09:14.548Z,1134.00
2024-01-09T11:10:13.587Z,1137.00
2024-01-09T11:11:23.730Z,1137.00
2024-01-09T11:12:13.566Z,1135.00
2024-01-09T11:13:13.559Z,1138.00
2024-01-09T11:14:13.561Z,1136.00
2024-01-09T11:15:13.523Z,1138.00
2024-01-09T11:16:13.533Z,1138.00
2024-01-09T11:17:13.508Z,1136.00
2024-01-09T11:18:13.584Z,1136.00
2024-01-09T11:19:13.619Z,1137.00
2024-01-09T11:20:13.539Z,1135.00
2024-01-09T11:21:13.494Z,1134.00
2024-01-09T11:22:13.471Z,1131.00
2024-01-09T11:23:13.454Z,1133.00
2024-01-09T11:24:13.467Z,1138.00
2024-01-09T11:25:13.454Z,1137.00
2024-01-09T11:26:13.440Z,1136.00
2024-01-09T11:27:13.591Z,1139.00
2024-01-09T11:28:13.416Z,1143.00
2024-01-09T11:29:13.425Z,1144.00
2024-01-09T11:30:13.433Z,1144.00
2024-01-09T11:31:13.434Z,1143.00
2024-01-09T11:32:13.495Z,1145.00
2024-01-09T11:33:13.439Z,1155.00
2024-01-09T11:34:13.446Z,1156.00
2024-01-09T11:35:13.361Z,1156.00
2024-01-09T11:36:13.672Z,1165.00
2024-01-09T11:37:13.330Z,1166.00
2024-01-09T11:38:13.338Z,1167.00
2024-01-09T11:39:13.335Z,1171.00
2024-01-09T11:40:13.330Z,1181.00
2024-01-09T11:41:13.324Z,1186.00
2024-01-09T11:42:13.299Z,1193.00
2024-01-09T11:43:13.295Z,1191.00
2024-01-09T11:44:13.308Z,1189.00
2024-01-09T11:45:35.791Z,1189.00
2024-01-09T11:46:13.274Z,1189.00
2024-01-09T11:47:13.305Z,1189.00
2024-01-09T11:48:15.289Z,1187.00
2024-01-09T11:49:13.325Z,1190.00
2024-01-09T11:50:13.229Z,1192.00
2024-01-09T11:51:13.221Z,1192.00
2024-01-09T11:52:13.211Z,1197.00
2024-01-09T11:53:13.188Z,1202.00
2024-01-09T11:54:13.189Z,1204.00
2024-01-09T11:55:13.230Z,1205.00
2024-01-09T11:56:13.181Z,1210.00
2024-01-09T11:57:13.157Z,1211.00
2024-01-09T11:58:13.160Z,1213.00
2024-01-09T11:59:13.135Z,1216.00
2024-01-09T12:00:13.165Z,1228.00
2024-01-09T12:01:13.149Z,1226.00
2024-01-09T12:02:13.123Z,1225.00
2024-01-09T12:03:13.117Z,1229.00
2024-01-09T12:04:13.143Z,1230.00
2024-01-09T12:05:13.098Z,1228.00
2024-01-09T12:06:13.092Z,1230.00
2024-01-09T12:07:13.211Z,1231.00
2024-01-09T12:08:13.077Z,1236.00
2024-01-09T12:09:13.048Z,1246.00
2024-01-09T12:10:21.634Z,1257.00
2024-01-09T12:11:14.026Z,1264.00
2024-01-09T12:12:13.080Z,1278.00
2024-01-09T12:13:13.004Z,1284.00
2024-01-09T12:14:13.007Z,1286.00
2024-01-09T12:15:12.989Z,1287.00
2024-01-09T12:16:12.995Z,1299.00
2024-01-09T12:17:12.981Z,1217.00
2024-01-09T12:18:13.055Z,1064.00
2024-01-09T12:19:13.059Z,1029.00
2024-01-09T12:20:12.981Z,977.00
2024-01-09T12:21:12.976Z,856.00
2024-01-09T12:22:12.934Z,909.00
2024-01-09T12:23:12.925Z,946.00